• Join FlightAware (Why Join?)
  • Login
  • US Flag 
10:12AM EDT


 

Airport Tracker/Info


-or-


 

Live Flight TrackerFlight Track Log ✈ EJA396 ✈ 12-Jun-2013 ✈ KOAK - KGFL

Flight Track Log - Related Links

Times and Time Zones

All times are in EDT time to prevent confusion due to time zone crossing. See the EJA396 flight status page for this flight to view local times or setup timezone preferences in your user account.

Time Position Orientation Groundspeed Altitude Reporting Facility
EDT Latitude Longitude Course Direction KTS MPH feet Rate Location/Type
10:51AM 37.7500 -122.2833 65° Northeast 229 264 2,900  Level Northern Cal TRACON
10:52AM 37.8000 -122.3333 322° Northwest 251 289 6,500 2,940 Climbing Northern Cal TRACON
10:54AM 37.9175 -122.2658 24° Northeast 299 344 11,400 2,460 Climbing Oakland Center
10:55AM 37.9822 -122.1783 47° Northeast 340 391 13,700 2,340 Climbing Oakland Center
10:56AM 38.0697 -122.0606 47° Northeast 382 440 16,200 2,280 Climbing Oakland Center
10:57AM 37.9977 -121.4440 65° Northeast  Level Estimated
10:57AM 38.1469 -121.9558 47° Northeast 405 466 18,400  Level Oakland Center
10:58AM 38.2253 -121.8494 47° Northeast 412 474 20,700 2,100 Climbing Oakland Center
10:59AM 38.3031 -121.7431 47° Northeast 412 474 22,800 2,520 Climbing Oakland Center
11:00AM 38.3811 -121.6356 47° Northeast 412 474 25,900 2,400 Climbing Oakland Center
11:01AM 38.4550 -121.5308 48° Northeast 407 468 27,800 1,800 Climbing Oakland Center
11:02AM 38.5267 -121.4081 53° Northeast 418 481 29,600 1,800 Climbing Oakland Center
11:03AM 38.5953 -121.2883 54° Northeast 421 484 31,600 1,620 Climbing Oakland Center
11:04AM 38.6664 -121.1694 53° Northeast 421 484 33,000 1,260 Climbing Oakland Center
11:05AM 38.7442 -121.0356 53° Northeast 434 499 34,200 1,080 Climbing Oakland Center
11:06AM 38.8169 -120.9086 54° Northeast 439 505 35,300 780 Climbing Oakland Center
11:07AM 38.8944 -120.7747 53° Northeast 462 532 35,800 480 Climbing Oakland Center
11:08AM 38.9767 -120.6364 53° Northeast 483 556 36,300 540 Climbing Oakland Center
11:09AM 39.0747 -120.4650 54° Northeast 493 567 36,900 300 Climbing Oakland Center
11:11AM 39.1572 -120.3200 54° Northeast 500 575 37,000  Climbing Oakland Center
11:12AM 39.2411 -120.1728 54° Northeast 506 582 37,000  Level Oakland Center
11:13AM 39.3306 -120.0164 53° Northeast 513 590 37,000  Level Oakland Center
11:14AM 39.4150 -119.8661 54° Northeast 514 592 37,000  Level Oakland Center
11:15AM 39.4997 -119.7147 54° Northeast 517 595 37,000  Level Oakland Center
11:16AM 39.5844 -119.5622 54° Northeast 520 598 37,000  Level Oakland Center
11:17AM 39.6692 -119.4086 54° Northeast 521 600 37,000  Level Oakland Center
11:18AM 39.7556 -119.2539 54° Northeast 523 602 37,000  Level Oakland Center
11:19AM 39.8406 -119.0986 54° Northeast 523 602 37,000  Level Oakland Center
11:20AM 39.9272 -118.9422 54° Northeast 526 605 37,000  Level Oakland Center
11:21AM 40.0117 -118.7861 55° Northeast 525 604 37,000  Level Oakland Center
11:22AM 40.0969 -118.6297 54° Northeast 525 604 37,000  Level Oakland Center
11:23AM 40.1644 -118.4619 62° Northeast 518 596 37,000  Level Oakland Center
11:24AM 40.2289 -118.2892 64° Northeast 523 602 37,000  Level Oakland Center
11:25AM 40.2931 -118.1183 64° Northeast 523 602 37,000  Level Oakland Center
11:26AM 40.3631 -117.9297 64° Northeast 524 603 37,000  Level Oakland Center
11:27AM 40.4247 -117.7642 64° Northeast 525 604 37,000  Level Oakland Center
11:28AM 40.4964 -117.5708 64° Northeast 524 603 37,000  Level Oakland Center
11:29AM 40.5567 -117.4050 64° Northeast 524 603 37,000  Level Oakland Center
11:30AM 40.6175 -117.2389 64° Northeast 522 601 37,000  Level Oakland Center
11:31AM 40.6886 -117.0431 64° Northeast 525 604 37,000  Level Oakland Center
11:32AM 40.7489 -116.8742 65° Northeast 524 603 37,000  Level Oakland Center
11:32AM 40.7686 -116.8172 65° Northeast 524 603 37,000  Level Salt Lake Center
11:33AM 40.8281 -116.6489 65° Northeast 524 603 37,000  Level Salt Lake Center
11:34AM 40.8875 -116.4803 65° Northeast 527 606 37,000  Level Salt Lake Center
11:35AM 40.9567 -116.2822 65° Northeast 530 610 37,000  Level Salt Lake Center
11:36AM 41.0167 -116.1117 65° Northeast 532 612 37,000  Level Salt Lake Center
11:37AM 41.0867 -115.9153 65° Northeast 530 610 37,000  Level Salt Lake Center
11:38AM 41.1433 -115.7433 66° East 530 610 37,000  Level Salt Lake Center
11:39AM 41.2122 -115.5436 65° Northeast 532 612 37,000  Level Salt Lake Center
11:40AM 41.2703 -115.3722 66° East 531 611 37,000  Level Salt Lake Center
11:42AM 41.3378 -115.1711 66° East 534 615 37,000  Level Salt Lake Center
11:43AM 41.3964 -114.9986 66° East 534 615 37,000  Level Salt Lake Center
11:44AM 41.4639 -114.7933 66° East 538 619 37,000  Level Salt Lake Center
11:45AM 41.5239 -114.6117 66° East 537 618 37,000  Level Salt Lake Center
11:46AM 41.5847 -114.4294 66° East 538 619 37,000  Level Salt Lake Center
11:47AM 41.6439 -114.2464 67° East 538 619 37,000  Level Salt Lake Center
11:48AM 41.7025 -114.0628 67° East 537 618 37,000  Level Salt Lake Center
11:49AM 41.7528 -113.8758 70° East 536 617 37,000  Level Salt Lake Center
11:50AM 41.8044 -113.6467 73° East 537 618 37,000  Level Salt Lake Center
11:51AM 41.8489 -113.4581 72° East 534 615 37,000  Level Salt Lake Center
11:52AM 41.8933 -113.2689 72° East 532 612 37,000  Level Salt Lake Center
11:53AM 41.9369 -113.0778 73° East 532 612 37,000  Level Salt Lake Center
11:54AM 41.9822 -112.8864 72° East 536 617 37,000  Level Salt Lake Center
11:55AM 42.0283 -112.6956 72° East 537 618 37,000  Level Salt Lake Center
11:56AM 42.0742 -112.5047 72° East 537 618 37,000  Level Salt Lake Center
11:57AM 42.1364 -112.2783 70° East 537 618 37,000  Level Salt Lake Center
11:58AM 42.1942 -112.0933 67° East 535 616 37,000  Level Salt Lake Center
11:59AM 42.2519 -111.9067 67° East 537 618 37,000  Level Salt Lake Center
12:00PM 42.3092 -111.7203 67° East 537 618 37,000  Level Salt Lake Center
12:01PM 42.3658 -111.5336 68° East 538 619 37,000  Level Salt Lake Center
12:02PM 42.4217 -111.3464 68° East 536 617 37,000  Level Salt Lake Center
12:03PM 42.4894 -111.1231 68° East 534 615 37,000  Level Salt Lake Center
12:04PM 42.5461 -110.9331 68° East 536 617 37,000  Level Salt Lake Center
12:05PM 42.5994 -110.7533 68° East 536 617 37,000  Level Salt Lake Center
12:06PM 42.6611 -110.5417 68° East 538 619 37,000  Level Salt Lake Center
12:07PM 42.7147 -110.3619 68° East 538 619 37,000  Level Salt Lake Center
12:08PM 42.7756 -110.1533 68° East 534 615 37,000  Level Salt Lake Center
12:09PM 42.8275 -109.9697 69° East 539 620 37,000  Level Salt Lake Center
12:10PM 42.8792 -109.7878 69° East 536 617 37,000  Level Salt Lake Center
12:12PM 42.9389 -109.5767 69° East 534 615 37,000  Level Salt Lake Center
12:13PM 42.9950 -109.3722 69° East 534 615 37,000  Level Salt Lake Center
12:14PM 43.0458 -109.1917 69° East 532 612 37,000  Level Salt Lake Center
12:15PM 43.1039 -108.9811 69° East 532 612 37,000  Level Salt Lake Center
12:16PM 43.1533 -108.8008 69° East 530 610 37,000  Level Salt Lake Center
12:17PM 43.2092 -108.5900 70° East 528 608 37,000  Level Salt Lake Center
12:18PM 43.2583 -108.4072 70° East 532 612 37,000  Level Salt Lake Center
12:19PM 43.3072 -108.2261 70° East 531 611 37,000  Level Salt Lake Center
12:20PM 43.3639 -108.0119 70° East 535 616 37,000  Level Salt Lake Center
12:21PM 43.4114 -107.8308 70° East 530 610 37,000  Level Salt Lake Center
12:22PM 43.4667 -107.6158 70° East 534 615 37,000  Level Salt Lake Center
12:23PM 43.5147 -107.4303 70° East 538 619 37,000  Level Salt Lake Center
12:24PM 43.5550 -107.2772 70° East 530 610 37,000  Level Denver Center
12:25PM 43.6092 -107.0639 71° East 529 609 37,000  Level Denver Center
12:25PM 43.6158 -107.0322 74° East 537 618 37,000  Level Salt Lake Center
12:26PM 43.6553 -106.8797 70° East 531 611 37,000  Level Denver Center
12:26PM 43.6661 -106.8353 71° East 532 612 37,000  Level Salt Lake Center
12:27PM 43.7172 -106.6250 71° East 520 598 37,000  Level Salt Lake Center
12:28PM 43.7542 -106.4831 70° East 528 608 37,000 360 Level Denver Center
12:29PM 43.8064 -106.2703 71° East 525 604 37,700 660 Climbing Denver Center
12:29PM 43.8192 -106.2236 69° East 532 612 37,900 540 Climbing Salt Lake Center
12:30PM 43.8511 -106.0889 72° East 521 600 38,400 540 Climbing Denver Center
12:31PM 43.9075 -105.8547 71° East 511 588 39,000 240 Climbing Denver Center
12:32PM 43.9481 -105.6811 72° East 503 579 39,000  Level Denver Center
12:33PM 43.9944 -105.4819 72° East 495 570 39,000  Level Denver Center
12:34PM 44.0353 -105.3117 71° East 490 564 39,000  Level Denver Center
12:35PM 44.0806 -105.1106 73° East 490 564 39,000  Level Denver Center
12:36PM 44.1197 -104.9411 72° East 486 559 39,000  Level Denver Center
12:37PM 44.1658 -104.7400 72° East 487 560 39,000  Level Denver Center
12:38PM 44.2042 -104.5700 72° East 485 558 39,000  Level Denver Center
12:39PM 44.2483 -104.3703 73° East 483 556 39,000  Level Denver Center
12:40PM 44.2858 -104.1981 73° East 484 557 39,000  Level Denver Center
12:41PM 44.3319 -103.9975 72° East 486 559 39,000  Level Denver Center
12:42PM 44.3650 -103.8414 73° East 487 560 39,000  Level Denver Center
12:44PM 44.4122 -103.6244 73° East 486 559 39,000  Level Denver Center
12:45PM 44.4511 -103.4458 73° East 483 556 39,000  Level Denver Center
12:46PM 44.4894 -103.2675 73° East 479 551 39,000  Level Denver Center
12:47PM 44.5322 -103.0517 74° East 479 551 39,000  Level Denver Center
12:48PM 44.5692 -102.8742 74° East 478 550 39,000  Level Denver Center
12:49PM 44.6081 -102.6969 73° East 476 548 39,000  Level Denver Center
12:50PM 44.6511 -102.5236 71° East 472 543 39,000  Level Minneapolis Center
12:51PM 44.6878 -102.3111 76° East 470 541 39,000  Level Denver Center
12:52PM 44.7233 -102.1347 74° East 469 540 39,000  Level Denver Center
12:53PM 44.7650 -101.9619 71° East 466 536 39,000 180 Level Minneapolis Center
12:54PM 44.7997 -101.7853 74° East 468 539 39,400 480 Climbing Minneapolis Center
12:55PM 44.8347 -101.6072 74° East 470 541 40,000 420 Climbing Minneapolis Center
12:56PM 44.8692 -101.4300 75° East 471 542 40,300 300 Climbing Minneapolis Center
12:57PM 44.9100 -101.2156 75° East 471 542 40,700 300 Climbing Minneapolis Center
12:58PM 44.9436 -101.0356 75° East 473 544 41,000 120 Climbing Minneapolis Center
12:59PM 44.9814 -100.8556 73° East 476 548 41,000  Level Minneapolis Center
01:00PM 45.0139 -100.6753 76° East 475 547 41,000  Level Minneapolis Center
01:01PM 45.0475 -100.4972 75° East 471 542 41,000  Level Minneapolis Center
01:02PM 45.0797 -100.3189 76° East 468 539 41,000  Level Minneapolis Center
01:03PM 45.1125 -100.1386 75° East 467 537 41,000  Level Minneapolis Center
01:04PM 45.1497 -99.9519 74° East 478 550 41,000  Level Minneapolis Center
01:05PM 45.1806 -99.7656 77° East 478 550 41,000  Level Minneapolis Center
01:06PM 45.2172 -99.5500 76° East 468 539 41,000  Level Minneapolis Center
01:07PM 45.2475 -99.3711 76° East 467 537 41,000  Level Minneapolis Center
01:09PM 45.2797 -99.1897 76° East 471 542 41,000  Level Minneapolis Center
01:10PM 45.3111 -99.0106 76° East 469 540 41,000  Level Minneapolis Center
01:11PM 45.3408 -98.8292 77° East 470 541 41,000  Level Minneapolis Center
01:12PM 45.3711 -98.6489 76° East 471 542 41,000  Level Minneapolis Center
01:13PM 45.4075 -98.4297 77° East 473 544 41,000  Level Minneapolis Center
01:14PM 45.4142 -98.2447 87° East 469 540 41,000  Level Minneapolis Center
01:15PM 45.4075 -98.0575 93° East 472 543 41,000  Level Minneapolis Center
01:16PM 45.4006 -97.8806 93° East 470 541 41,000  Level Minneapolis Center
01:17PM 45.3933 -97.6931 93° East 473 544 41,000  Level Minneapolis Center
01:18PM 45.3844 -97.4692 93° East 473 544 41,000  Level Minneapolis Center
01:19PM 45.3772 -97.2814 93° East 475 547 41,000  Level Minneapolis Center
01:20PM 45.3700 -97.0942 93° East 474 545 41,000  Level Minneapolis Center
01:21PM 45.3597 -96.9078 94° East 474 545 41,000  Level Minneapolis Center
01:22PM 45.3517 -96.7214 93° East 473 544 41,000  Level Minneapolis Center
01:23PM 45.3433 -96.5358 94° East 471 542 41,000  Level Minneapolis Center
01:24PM 45.3328 -96.3147 94° East 468 539 41,000  Level Minneapolis Center
01:25PM 45.3236 -96.1311 94° East 467 537 41,000  Level Minneapolis Center
01:26PM 45.3144 -95.9469 94° East 468 539 41,000  Level Minneapolis Center
01:27PM 45.3033 -95.7614 95° East 469 540 41,000  Level Minneapolis Center
01:28PM 45.2931 -95.5769 94° East 469 540 41,000  Level Minneapolis Center
01:29PM 45.2819 -95.3942 95° East 466 536 41,000  Level Minneapolis Center
01:30PM 45.2722 -95.2111 94° East 465 535 41,000  Level Minneapolis Center
01:31PM 45.2581 -94.9911 95° East 466 536 41,000  Level Minneapolis Center
01:32PM 45.2469 -94.8089 95° East 465 535 41,000  Level Minneapolis Center
01:33PM 45.2364 -94.6411 95° East 466 536 41,000  Level Minneapolis Center
01:34PM 45.2208 -94.4236 96° East 464 534 41,000  Level Minneapolis Center
01:35PM 45.2089 -94.2417 95° East 465 535 41,000  Level Minneapolis Center
01:36PM 45.1967 -94.0603 95° East 463 533 41,000  Level Minneapolis Center
01:37PM 45.1833 -93.8778 96° East 466 536 41,000  Level Minneapolis Center
01:39PM 45.1700 -93.6967 96° East 464 534 41,000  Level Minneapolis Center
01:40PM 45.1567 -93.5139 96° East 465 535 41,000  Level Minneapolis Center
01:41PM 45.1428 -93.3308 96° East 466 536 41,000  Level Minneapolis Center
01:42PM 45.1239 -93.1097 97° East 468 539 41,000  Level Minneapolis Center
01:43PM 45.1069 -92.9264 97° East 469 540 41,000  Level Minneapolis Center
01:44PM 45.0908 -92.7439 97° East 466 536 41,000  Level Minneapolis Center
01:45PM 45.0733 -92.5628 98° East 466 536 41,000  Level Minneapolis Center
01:46PM 45.0575 -92.3814 97° East 466 536 41,000  Level Minneapolis Center
01:47PM 45.0389 -92.2008 98° East 465 535 41,000  Level Minneapolis Center
01:48PM 45.0194 -92.0189 99° East 467 537 41,000  Level Minneapolis Center
01:49PM 44.9964 -91.8019 98° East 467 537 41,000  Level Minneapolis Center
01:50PM 44.9769 -91.6217 99° East 466 536 41,000  Level Minneapolis Center
01:51PM 44.9575 -91.4428 99° East 465 535 41,000  Level Minneapolis Center
01:52PM 44.9375 -91.2636 99° East 464 534 41,000  Level Minneapolis Center
01:53PM 44.9186 -91.0844 98° East 463 533 41,000  Level Minneapolis Center
01:54PM 44.8958 -90.8869 99° East 464 534 41,000  Level Minneapolis Center
01:55PM 44.8764 -90.7100 99° East 461 531 41,000  Level Minneapolis Center
01:56PM 44.8544 -90.5317 100° East 463 533 41,000  Level Minneapolis Center
01:57PM 44.8325 -90.3375 99° East 462 532 41,000  Level Minneapolis Center
01:58PM 44.8108 -90.1586 100° East 464 534 41,000  Level Minneapolis Center
01:59PM 44.7856 -89.9481 100° East 466 536 41,000  Level Minneapolis Center
02:00PM 44.7628 -89.7692 100° East 466 536 41,000  Level Minneapolis Center
02:01PM 44.7403 -89.5900 100° East 465 535 41,000  Level Minneapolis Center
02:02PM 44.7175 -89.4097 100° East 467 537 41,000  Level Minneapolis Center
02:03PM 44.6942 -89.2294 100° East 468 539 41,000  Level Minneapolis Center
02:04PM 44.6661 -89.0206 101° East 466 536 41,000  Level Minneapolis Center
02:05PM 44.6428 -88.8406 100° East 468 539 41,000  Level Minneapolis Center
02:06PM 44.6186 -88.6589 101° East 471 542 41,000  Level Minneapolis Center
02:07PM 44.5944 -88.4775 101° East 472 543 41,000  Level Minneapolis Center
02:09PM 44.5694 -88.2944 101° East 475 547 41,000  Level Minneapolis Center
02:10PM 44.5592 -88.1111 94° East 476 548 41,000  Level Minneapolis Center
02:11PM 44.5706 -87.9164 85° East 472 543 41,000  Level Minneapolis Center
02:12PM 44.5786 -87.7325 86° East 474 545 41,000  Level Minneapolis Center
02:13PM 44.5869 -87.5486 86° East 473 544 41,000  Level Minneapolis Center
02:14PM 44.5978 -87.3289 86° East 472 543 41,000  Level Minneapolis Center
02:15PM 44.6061 -87.1458 86° East 471 542 41,000  Level Minneapolis Center
02:16PM 44.6142 -86.9636 86° East 471 542 41,000  Level Minneapolis Center
02:17PM 44.6222 -86.7783 86° East 476 548 41,000  Level Minneapolis Center
02:18PM 44.6300 -86.5972 86° East 470 541 41,000  Level Minneapolis Center
02:19PM 44.6389 -86.3781 87° East 472 543 41,000  Level Minneapolis Center
02:20PM 44.6447 -86.1967 87° East 472 543 41,000  Level Minneapolis Center
02:21PM 44.6525 -86.0219 86° East 476 548 41,000  Level Minneapolis Center
02:22PM 44.6583 -85.8361 87° East 477 549 41,000  Level Minneapolis Center
02:23PM 44.6653 -85.6139 87° East 475 547 41,000  Level Minneapolis Center
02:24PM 44.6572 -85.4283 93° East 478 550 41,000  Level Minneapolis Center
02:25PM 44.6392 -85.2431 98° East 482 555 41,000  Level Minneapolis Center
02:26PM 44.6219 -85.0578 97° East 481 554 41,000  Level Minneapolis Center
02:27PM 44.6044 -84.8711 97° East 483 556 41,000  Level Minneapolis Center
02:28PM 44.5850 -84.6850 98° East 484 557 41,000  Level Minneapolis Center
02:29PM 44.5625 -84.4603 98° East 486 559 41,000  Level Minneapolis Center
02:30PM 44.5453 -84.2733 97° East 486 559 41,000  Level Minneapolis Center
02:31PM 44.5253 -84.0864 98° East 486 559 41,000  Level Minneapolis Center
02:32PM 44.5053 -83.8978 98° East 489 563 41,000  Level Minneapolis Center
02:33PM 44.4867 -83.7097 98° East 489 563 41,000  Level Minneapolis Center
02:34PM 44.4617 -83.4819 99° East 493 567 41,000  Level Minneapolis Center
02:35PM 44.4444 -83.2911 97° East 495 570 41,000  Level Minneapolis Center
02:36PM 44.4411 -83.0989 91° East 496 571 41,000  Level Minneapolis Center
02:37PM 44.4344 -82.9089 93° East 493 567 41,000  Level Minneapolis Center
02:39PM 44.4297 -82.7178 92° East 493 567 41,000  Level Minneapolis Center
02:40PM 44.4219 -82.5256 93° East 494 568 41,000  Level Minneapolis Center
02:41PM 44.4133 -82.2964 93° East 494 568 41,000  Level Minneapolis Center
02:41PM 44.3833 -82.2167 118° Southeast 500 575 41,000  Level Toronto Center
02:42PM 44.3833 -82.0333 90° East 500 575 41,000  Level Toronto Center
02:43PM 44.3833 -81.8500 90° East 490 564 41,000  Level Toronto Center
02:44PM 44.3667 -81.6333 96° East 500 575 41,000  Level Toronto Center
02:45PM 44.3667 -81.4500 90° East 500 575 41,000  Level Toronto Center
02:46PM 44.3500 -81.2667 97° East 490 564 41,000  Level Toronto Center
02:47PM 44.3333 -81.0833 97° East 490 564 41,000  Level Toronto Center
02:48PM 44.3167 -80.8667 96° East 490 564 41,000  Level Toronto Center
02:49PM 44.3333 -80.7000 82° East 490 564 41,000  Level Toronto Center
02:50PM 44.3167 -80.5000 97° East 490 564 41,000  Level Toronto Center
02:51PM 44.3000 -80.3000 97° East 490 564 41,000  Level Toronto Center
02:52PM 44.2833 -80.1167 97° East 490 564 41,000  Level Toronto Center
02:53PM 44.2833 -79.9333 90° East 490 564 41,000  Level Toronto Center
02:54PM 44.2667 -79.7500 97° East 490 564 41,000  Level Toronto Center
02:55PM 44.2500 -79.5667 97° East 490 564 41,000  Level Toronto Center
02:56PM 44.2500 -79.3500 90° East 490 564 41,000  Level Toronto Center
02:57PM 44.2333 -79.1833 98° East 490 564 41,000  Level Toronto Center
02:58PM 44.2167 -78.9833 97° East 490 564 41,000  Level Toronto Center
02:59PM 44.2000 -78.8000 97° East 490 564 41,000  Level Toronto Center
03:00PM 44.1667 -78.6333 106° East 490 564 41,000  Level Toronto Center
03:01PM 44.1333 -78.4167 102° East 490 564 41,000 -240 Level Toronto Center
03:02PM 44.1000 -78.2333 104° East 490 564 40,600 -960 Descending Toronto Center
03:03PM 44.0833 -78.0500 97° East 500 575 39,100 -1,440 Descending Toronto Center
03:04PM 44.0500 -77.8667 104° East 500 575 37,800 -1,080 Descending Toronto Center
03:05PM 44.0333 -77.6667 97° East 510 587 37,000 -420 Descending Toronto Center
03:06PM 44.0000 -77.4833 104° East 510 587 37,000  Level Toronto Center
03:07PM 43.9667 -77.2667 102° East 510 587 37,000 -180 Level Toronto Center
03:08PM 43.9333 -77.0833 104° East 510 587 36,700 -780 Descending Toronto Center
03:09PM 43.9167 -76.9000 97° East 510 587 35,500 -1,200 Descending Toronto Center
03:10PM 43.8833 -76.7000 103° East 530 610 34,300 -1,200 Descending Toronto Center
03:11PM 43.8333 -76.4833 108° East 530 610 33,100 -1,200 Descending Toronto Center
03:12PM 43.8233 -76.3025 94° East 531 611 31,700 -1,200 Descending Boston Center
03:13PM 43.7886 -76.0872 103° East 531 611 30,500 -1,200 Descending Boston Center
03:14PM 43.7531 -75.8925 104° East 525 604 29,300 -1,200 Descending Boston Center
03:15PM 43.7214 -75.6953 102° East 525 604 28,100 -1,200 Descending Boston Center
03:16PM 43.6869 -75.5008 104° East 520 598 26,900 -1,380 Descending Boston Center
03:17PM 43.6564 -75.3156 103° East 509 586 25,400 -1,920 Descending Boston Center
03:18PM 43.6211 -75.1333 105° East 497 572 23,100 -2,400 Descending Boston Center
03:19PM 43.5917 -74.9600 103° East 486 559 20,600 -2,520 Descending Boston Center
03:20PM 43.5600 -74.7953 105° East 470 541 18,100 -2,400 Descending Boston Center
03:21PM 43.5339 -74.6367 103° East 438 504 15,900 -1,980 Descending Boston Center
03:21PM 43.5261 -74.6078 110° East 421 484 15,500 -2,100 Descending Boston Center
03:22PM 43.5053 -74.4869 103° East 416 479 13,800 -2,280 Descending Boston Center
03:22PM 43.4958 -74.4436 107° East 410 472 13,200 -2,100 Descending Boston Center
03:23PM 43.4786 -74.3458 104° East 395 455 11,700 -2,100 Descending Boston Center
03:23PM 43.4689 -74.3025 107° East 365 420 11,100 -720 Descending Boston Center
03:24PM 43.4536 -74.2106 103° East 379 436 11,000 -120 Descending Boston Center
03:24PM 43.4481 -74.1789 104° East 361 415 11,000 -900 Level Boston Center
03:25PM 43.4122 -74.0636 113° Southeast 318 366 9,900 -1,620 Descending Boston Center
03:26PM 43.3819 -73.9797 116° Southeast 318 366 8,200 -2,220 Descending Boston Center
03:26PM 43.3739 -73.9567 116° Southeast 303 349 7,700 -2,100 Descending Boston Center
03:27PM 43.3497 -73.8933 118° Southeast 291 335 6,100 -2,220 Descending Boston Center
03:27PM 43.3397 -73.8617 113° Southeast 273 314 5,500 -1,140 Descending Boston Center
03:28PM 43.3136 -73.7983 120° Southeast 285 328 5,000 14,820 Descending Boston Center
03:29PM 43.2792 -73.7036 117° Southeast 285 328 31,000 12,960 Climbing Boston Center
03:30PM 43.2425 -73.6114 119° Southeast 285 328 31,000  Level Boston Center
03:31PM 43.2081 -73.5169 117° Southeast 285 328 31,000  Level Boston Center
03:32PM 43.1856 -73.4622 119° Southeast 285 328 31,000  Level Boston Center
03:33PM 43.1856 -73.4622 200° South 285 328 31,000  Level Boston Center
03:35PM 43.1856 -73.4622 200° South 285 328 31,000  Level Boston Center
03:37PM 43.3333 -73.6000 324° Northwest  Level FlightAware Approximate
03:44PM 43.3412 -73.6103 324° Northwest  Level Estimated
03:45PM 43.3412 -73.6103 324° Northwest  Level Estimated